This is the latest recevied weather packets stored in our database for station/object LU4FBU-13. If no packets are shown the sender has not sent any weather packets the latest 1 day(s).
| Time | Temp. | Humidity | Pressure | Rain* | Wind** | Luminosity | Snow |
|---|---|---|---|---|---|---|---|
| 1778288797 | 11.67° C | 50% | 1010.2 hPa | 0 mm | - | - | - |
| 1778288177 | 11.11° C | 51% | 1009.8 hPa | 0 mm | - | - | - |
| 1778287557 | 11.11° C | 50% | 1009.9 hPa | 0 mm | - | - | - |
| 1778287246 | 11.67° C | 49% | 1009.4 hPa | 0 mm | - | - | - |
| 1778286944 | 11.67° C | 48% | 1009.3 hPa | 0 mm | - | - | - |
| 1778286686 | 11.67° C | 46% | 1009 hPa | 0 mm | - | - | - |
| 1778286010 | 11.67° C | 45% | 1009 hPa | 0 mm | - | - | - |
| 1778285695 | 11.67° C | 45% | 1008.8 hPa | 0 mm | - | - | - |
| 1778284518 | 11.11° C | 48% | 1008.5 hPa | 0 mm | - | - | - |
| 1778283835 | 11.11° C | 46% | 1008.7 hPa | 0 mm | - | - | - |
| 1778281664 | 11.67° C | 38% | 1008.4 hPa | 0 mm | - | - | - |
| 1778281414 | 12.22° C | 36% | 1008.3 hPa | 0 mm | - | - | - |
| 1778281104 | 12.22° C | 37% | 1008.5 hPa | 0 mm | - | - | - |
| 1778279243 | 12.78° C | 36% | 1008.1 hPa | 0 mm | - | - | - |
| 1778277943 | 13.33° C | 32% | 1008.2 hPa | 0 mm | - | - | - |
| 1778276084 | 14.44° C | 28% | 1007.6 hPa | 0 mm | - | - | - |
| 1778274222 | 15.56° C | 24% | 1007.5 hPa | 0 mm | - | - | - |
| 1778271741 | 16.67° C | 24% | 1007.2 hPa | 0 mm | - | - | - |
| 1778271179 | 16.67° C | 25% | 1006.8 hPa | 0 mm | - | - | - |
| 1778270809 | 16.67° C | 25% | 1006.9 hPa | 0 mm | - | - | - |
| 1778269881 | 16.67° C | 24% | 1007 hPa | 0 mm | - | - | - |
| 1778267397 | 16.67° C | 28% | 1007.2 hPa | 0 mm | - | - | - |
| 1778267087 | 16.67° C | 28% | 1007.4 hPa | 0 mm | - | - | - |
| 1778266777 | 16.67° C | 29% | 1007.3 hPa | 0 mm | - | - | - |
| 1778266469 | 16.67° C | 29% | 1007.6 hPa | 0 mm | - | - | - |
* Rain latest hour (hover to see other rain measurements)
** Current wind speed in m/s (hover to see current wind gust speed)